Time;durP1;ratioP1;P1;durP2;ratioP2;P2;SDS_P1;SDS_P2;PMS_P1;PMS_P2;Temp;Humidity;BMP_temperature;BMP_pressure;BME280_temperature;BME280_humidity;BME280_pressure;Samples;Min_cycle;Max_cycle;Signal;HPM_P1;HPM_P2
2024/01/10 00:02:04;;;;;;;18.20;2.80;;;0.60;99.90;;;;;;5048025;28;20192;-69
2024/01/10 00:04:29;;;;;;;9.60;2.90;;;0.70;99.90;;;;;;5052995;28;20185;-69
2024/01/10 00:06:55;;;;;;;11.17;2.47;;;0.70;99.90;;;;;;5038018;28;20185;-69
2024/01/10 00:09:21;;;;;;;14.53;2.53;;;0.70;99.90;;;;;;5036727;28;20654;-69
2024/01/10 00:11:46;;;;;;;11.03;2.60;;;0.70;99.90;;;;;;5048942;28;20184;-69
2024/01/10 00:14:12;;;;;;;15.30;2.97;;;0.70;99.90;;;;;;5052758;28;20648;-69
2024/01/10 00:16:38;;;;;;;14.20;2.70;;;0.60;99.90;;;;;;5052515;28;20217;-68
2024/01/10 00:19:04;;;;;;;10.40;2.30;;;0.70;99.90;;;;;;5037995;28;20262;-68
2024/01/10 00:21:30;;;;;;;11.43;2.73;;;0.60;99.90;;;;;;5032655;28;20170;-68
2024/01/10 00:23:56;;;;;;;12.60;3.10;;;0.60;99.90;;;;;;5032612;28;20257;-68
2024/01/10 00:26:22;;;;;;;8.27;2.80;;;0.60;99.90;;;;;;5036309;28;20161;-68
2024/01/10 00:28:47;;;;;;;10.47;2.67;;;0.50;99.90;;;;;;5052340;28;20272;-68
2024/01/10 00:31:13;;;;;;;12.57;2.47;;;0.60;99.90;;;;;;5052325;28;20169;-68
2024/01/10 00:33:40;;;;;;;11.47;2.50;;;0.60;99.90;;;;;;5052177;28;20231;-68
2024/01/10 00:36:06;;;;;;;14.07;3.13;;;0.60;99.90;;;;;;5052174;28;20245;-68
2024/01/10 00:38:32;;;;;;;10.47;2.97;;;0.60;99.90;;;;;;5052191;28;20177;-68
2024/01/10 00:40:57;;;;;;;6.80;2.50;;;0.50;99.90;;;;;;5052135;28;20214;-68
2024/01/10 00:43:23;;;;;;;11.07;2.53;;;0.50;99.90;;;;;;5052194;28;20202;-68
2024/01/10 00:45:49;;;;;;;12.67;2.60;;;0.50;99.90;;;;;;5052051;28;20655;-68
2024/01/10 00:48:17;;;;;;;11.73;2.57;;;0.40;99.90;;;;;;5052113;28;20731;-68
2024/01/10 00:50:44;;;;;;;8.27;2.70;;;0.40;99.90;;;;;;5051912;28;20225;-69
2024/01/10 00:53:09;;;;;;;12.70;2.83;;;0.40;99.90;;;;;;5052048;28;20177;-68
2024/01/10 00:55:35;;;;;;;9.60;2.60;;;0.40;99.90;;;;;;5051834;28;20259;-68
2024/01/10 00:58:01;;;;;;;8.57;2.77;;;0.40;99.90;;;;;;5051743;28;20544;-68
2024/01/10 01:00:27;;;;;;;8.93;2.80;;;0.40;99.90;;;;;;5051929;28;20518;-68
2024/01/10 01:02:52;;;;;;;15.93;3.10;;;0.40;99.90;;;;;;5051777;28;20231;-68
2024/01/10 01:05:18;;;;;;;7.20;2.87;;;0.40;99.90;;;;;;5051829;28;20176;-68
2024/01/10 01:07:44;;;;;;;15.23;3.13;;;0.40;99.90;;;;;;5051798;28;20180;-68
2024/01/10 01:10:09;;;;;;;8.53;2.70;;;0.50;99.90;;;;;;5071828;28;20237;-68
2024/01/10 01:12:35;;;;;;;13.60;3.50;;;0.50;99.90;;;;;;5071631;28;20179;-68
2024/01/10 01:15:01;;;;;;;12.37;2.83;;;0.60;99.90;;;;;;5057308;28;20189;-68
2024/01/10 01:17:26;;;;;;;7.13;2.90;;;0.60;99.90;;;;;;5051515;28;20209;-68
2024/01/10 01:19:52;;;;;;;7.83;3.00;;;0.60;99.90;;;;;;5051655;28;20173;-69
2024/01/10 01:22:17;;;;;;;12.30;2.93;;;0.70;99.90;;;;;;5051582;28;20238;-68
2024/01/10 01:24:44;;;;;;;16.43;3.20;;;0.70;99.90;;;;;;5051564;28;20268;-68
2024/01/10 01:27:10;;;;;;;7.17;2.90;;;0.70;99.90;;;;;;5051495;28;20172;-68
2024/01/10 01:29:35;;;;;;;14.07;3.33;;;0.80;99.90;;;;;;5039811;28;20174;-68
2024/01/10 01:32:01;;;;;;;10.67;3.20;;;0.80;99.90;;;;;;5035400;28;20174;-68
2024/01/10 01:34:27;;;;;;;13.00;3.27;;;0.90;99.90;;;;;;5031722;28;20177;-68
2024/01/10 01:36:53;;;;;;;9.63;3.00;;;1.00;99.90;;;;;;5045429;28;20209;-68
2024/01/10 01:39:19;;;;;;;11.13;2.83;;;1.00;99.90;;;;;;5038030;28;20284;-68
2024/01/10 01:41:45;;;;;;;10.87;3.30;;;1.10;99.90;;;;;;5051697;28;20242;-68
2024/01/10 01:44:10;;;;;;;12.90;2.73;;;1.10;99.90;;;;;;5049889;28;20209;-68
2024/01/10 01:46:37;;;;;;;6.63;2.37;;;1.20;99.90;;;;;;5051195;28;20201;-68
2024/01/10 01:49:03;;;;;;;11.43;3.03;;;1.20;99.90;;;;;;5051079;28;20213;-68
2024/01/10 01:51:31;;;;;;;9.00;2.77;;;1.30;99.90;;;;;;5051039;28;20729;-68
2024/01/10 01:53:57;;;;;;;10.30;2.80;;;1.30;99.90;;;;;;5051053;28;20169;-68
2024/01/10 01:56:23;;;;;;;8.07;2.60;;;1.30;99.90;;;;;;5050913;28;20205;-68
2024/01/10 01:58:51;;;;;;;12.33;2.83;;;1.30;99.90;;;;;;5051042;28;20246;-68
2024/01/10 02:01:21;;;;;;;8.37;2.90;;;1.30;99.90;;;;;;5051027;28;20208;-68
2024/01/10 02:03:47;;;;;;;12.07;2.70;;;1.30;99.90;;;;;;5051169;28;20211;-68
2024/01/10 02:06:12;;;;;;;13.03;2.90;;;1.30;99.90;;;;;;5049801;28;20177;-68
2024/01/10 02:08:39;;;;;;;6.80;2.90;;;1.30;99.90;;;;;;5051054;28;20539;-68
2024/01/10 02:11:05;;;;;;;7.00;2.40;;;1.30;99.90;;;;;;5050935;28;20647;-68
2024/01/10 02:13:35;;;;;;;9.50;2.50;;;1.30;99.90;;;;;;5050898;28;20224;-68
2024/01/10 02:16:01;;;;;;;6.63;2.43;;;1.30;99.90;;;;;;5050857;28;20169;-68
2024/01/10 02:18:26;;;;;;;9.03;2.30;;;1.20;99.90;;;;;;5051040;28;20169;-68
2024/01/10 02:20:52;;;;;;;11.03;2.90;;;1.10;99.90;;;;;;5054849;28;20644;-68
2024/01/10 02:23:18;;;;;;;15.07;3.07;;;1.20;99.90;;;;;;5054882;28;20256;-68
2024/01/10 02:25:44;;;;;;;13.27;3.13;;;1.10;99.90;;;;;;5054829;28;20204;-68
2024/01/10 02:28:10;;;;;;;7.30;2.20;;;1.10;99.90;;;;;;5054818;28;20264;-68
2024/01/10 02:30:36;;;;;;;5.53;2.17;;;1.10;99.90;;;;;;5054741;28;20216;-68
2024/01/10 02:33:02;;;;;;;7.87;2.57;;;1.10;99.90;;;;;;5044284;28;20178;-68
2024/01/10 02:35:27;;;;;;;8.80;2.60;;;1.10;99.90;;;;;;5034688;28;20640;-68
2024/01/10 02:37:54;;;;;;;10.20;2.80;;;1.00;99.90;;;;;;5034691;28;20663;-68
2024/01/10 02:40:21;;;;;;;6.13;2.40;;;1.00;99.90;;;;;;5036523;28;20248;-68
2024/01/10 02:42:46;;;;;;;9.47;2.60;;;1.10;99.90;;;;;;5041041;28;20323;-68
2024/01/10 02:45:12;;;;;;;8.63;2.30;;;1.10;99.90;;;;;;5054421;28;20639;-69
2024/01/10 02:47:38;;;;;;;8.23;2.50;;;1.20;99.90;;;;;;5039516;28;20212;-68
2024/01/10 02:50:05;;;;;;;7.77;2.27;;;1.20;99.90;;;;;;5039718;28;20178;-68
2024/01/10 02:52:31;;;;;;;14.97;2.67;;;1.30;99.90;;;;;;5052858;28;20615;-68
2024/01/10 02:54:56;;;;;;;11.73;2.73;;;1.30;99.90;;;;;;5053945;28;20205;-69
2024/01/10 02:57:22;;;;;;;11.10;2.47;;;1.20;99.90;;;;;;5054224;28;20717;-68
2024/01/10 02:59:48;;;;;;;14.47;3.10;;;1.20;99.90;;;;;;5044292;28;20170;-70
2024/01/10 03:02:14;;;;;;;8.00;2.67;;;1.10;99.90;;;;;;5034120;28;20607;-68
2024/01/10 03:04:40;;;;;;;3.93;2.57;;;1.00;99.90;;;;;;5034071;28;20220;-68
2024/01/10 03:07:05;;;;;;;11.07;2.60;;;0.90;99.90;;;;;;5042233;28;20533;-68
2024/01/10 03:09:31;;;;;;;13.37;2.97;;;0.80;99.90;;;;;;5053849;28;20169;-70
2024/01/10 03:11:56;;;;;;;8.37;2.37;;;0.70;99.90;;;;;;5053788;28;20199;-69
2024/01/10 03:14:22;;;;;;;13.83;2.87;;;0.60;99.90;;;;;;5053823;28;20162;-69
2024/01/10 03:16:48;;;;;;;13.27;3.00;;;0.60;99.90;;;;;;5053684;28;20232;-69
2024/01/10 03:19:14;;;;;;;9.87;2.97;;;0.50;99.90;;;;;;5054055;28;20216;-69
2024/01/10 03:21:39;;;;;;;12.63;3.37;;;0.50;99.90;;;;;;5053594;28;20177;-69
2024/01/10 03:24:06;;;;;;;18.03;3.00;;;0.50;99.90;;;;;;5053561;28;20170;-69
2024/01/10 03:26:31;;;;;;;11.17;3.07;;;0.50;99.90;;;;;;5053561;28;20178;-69
2024/01/10 03:28:57;;;;;;;6.77;2.80;;;0.40;99.90;;;;;;5053593;28;20232;-69
2024/01/10 03:31:23;;;;;;;6.77;3.03;;;0.40;99.90;;;;;;5052791;28;20215;-69
2024/01/10 03:33:50;;;;;;;10.37;3.27;;;0.40;99.90;;;;;;5053453;28;20176;-69
2024/01/10 03:36:16;;;;;;;4.87;2.67;;;0.30;99.90;;;;;;5044242;28;20224;-69
2024/01/10 03:38:43;;;;;;;8.20;3.43;;;0.30;99.90;;;;;;5033384;28;20178;-69
2024/01/10 03:41:22;;;;;;;9.50;2.90;;;0.20;99.90;;;;;;5033434;28;20713;-69
2024/01/10 03:43:48;;;;;;;8.70;3.30;;;0.20;99.90;;;;;;5033484;28;20648;-69
2024/01/10 03:46:14;;;;;;;13.40;3.70;;;0.30;99.90;;;;;;5036216;28;20173;-69
2024/01/10 03:48:47;;;;;;;12.50;3.70;;;0.20;99.90;;;;;;5047385;28;20181;-69
2024/01/10 03:51:14;;;;;;;9.83;3.53;;;0.20;99.90;;;;;;5043587;28;20579;-69
2024/01/10 03:53:40;;;;;;;11.40;3.50;;;0.20;99.90;;;;;;5042062;28;20641;-69
2024/01/10 03:56:06;;;;;;;9.87;3.33;;;0.10;99.90;;;;;;5038323;28;20173;-69
2024/01/10 03:58:32;;;;;;;9.93;3.40;;;0.10;99.90;;;;;;5037764;28;20192;-69
2024/01/10 04:00:57;;;;;;;8.23;3.80;;;0.20;99.90;;;;;;5050015;28;20504;-69
2024/01/10 04:03:23;;;;;;;8.73;3.53;;;0.20;99.90;;;;;;5043065;28;20193;-69
2024/01/10 04:05:49;;;;;;;7.43;3.43;;;0.10;99.90;;;;;;5052949;28;20173;-69
2024/01/10 04:08:15;;;;;;;12.60;3.63;;;0.10;99.90;;;;;;5050357;28;20223;-69
2024/01/10 04:10:41;;;;;;;11.57;3.77;;;0.10;99.90;;;;;;5039426;28;20267;-69
2024/01/10 04:13:06;;;;;;;14.23;4.03;;;0.10;99.90;;;;;;5043512;28;20714;-69
2024/01/10 04:15:32;;;;;;;9.13;4.00;;;0.10;99.90;;;;;;5032975;28;20185;-69
2024/01/10 04:17:58;;;;;;;9.67;4.47;;;0.10;99.90;;;;;;5040613;28;20235;-69
2024/01/10 04:20:23;;;;;;;6.63;3.40;;;0.10;99.90;;;;;;5041732;28;20192;-69
2024/01/10 04:22:49;;;;;;;11.07;4.10;;;0.10;99.90;;;;;;5048160;28;20181;-69
2024/01/10 04:25:15;;;;;;;10.83;4.03;;;0.10;99.90;;;;;;5036275;28;20177;-69
2024/01/10 04:27:40;;;;;;;6.10;3.20;;;0.10;99.90;;;;;;5045831;28;20174;-69
2024/01/10 04:30:06;;;;;;;9.80;3.90;;;0.10;99.90;;;;;;5032654;28;20173;-69
2024/01/10 04:32:32;;;;;;;12.47;3.93;;;0.00;99.90;;;;;;5035546;28;20173;-69
2024/01/10 04:34:58;;;;;;;12.87;3.93;;;0.00;99.90;;;;;;5041071;28;20180;-69
2024/01/10 04:37:23;;;;;;;8.90;3.87;;;0.10;99.90;;;;;;5050117;28;20208;-69
2024/01/10 04:39:49;;;;;;;11.97;4.03;;;0.10;99.90;;;;;;5032407;28;20208;-69
2024/01/10 04:42:15;;;;;;;17.53;4.87;;;0.20;99.90;;;;;;5032108;28;20185;-69
2024/01/10 04:44:41;;;;;;;13.03;4.37;;;0.20;99.90;;;;;;5035191;28;20267;-69
2024/01/10 04:47:07;;;;;;;6.27;3.80;;;0.20;99.90;;;;;;5033385;28;20236;-68
2024/01/10 04:49:33;;;;;;;6.93;4.07;;;0.10;99.90;;;;;;5052185;28;20165;-69
2024/01/10 04:51:58;;;;;;;13.17;4.27;;;0.20;99.90;;;;;;5052000;28;20248;-68
2024/01/10 04:54:24;;;;;;;9.57;3.73;;;0.30;99.90;;;;;;5039086;28;20184;-69
2024/01/10 04:56:50;;;;;;;8.20;3.70;;;0.30;99.90;;;;;;5051940;28;20267;-69
2024/01/10 04:59:15;;;;;;;8.53;4.00;;;0.30;99.90;;;;;;5051932;28;20183;-68
2024/01/10 05:01:41;;;;;;;8.63;3.97;;;0.40;99.90;;;;;;5051987;28;20235;-68
2024/01/10 05:04:07;;;;;;;12.73;3.97;;;0.40;99.90;;;;;;5051799;28;20643;-69
2024/01/10 05:06:32;;;;;;;7.17;3.83;;;0.40;99.90;;;;;;5051857;28;20177;-68
2024/01/10 05:08:58;;;;;;;10.23;3.97;;;0.40;99.90;;;;;;5051848;28;20707;-69
2024/01/10 05:11:25;;;;;;;6.83;3.60;;;0.50;99.90;;;;;;5051628;28;20535;-68
2024/01/10 05:13:51;;;;;;;8.33;4.43;;;0.30;99.90;;;;;;5051655;28;20226;-68
2024/01/10 05:16:17;;;;;;;6.53;3.80;;;0.50;99.90;;;;;;5051636;28;20205;-68
2024/01/10 05:18:43;;;;;;;9.20;4.10;;;0.40;99.90;;;;;;5051529;28;20174;-68
2024/01/10 05:21:09;;;;;;;9.93;3.70;;;0.50;99.90;;;;;;5051577;28;20203;-69
2024/01/10 05:23:35;;;;;;;8.40;3.67;;;0.40;99.90;;;;;;5051550;28;20260;-69
2024/01/10 05:26:01;;;;;;;8.23;3.83;;;0.50;99.90;;;;;;5051422;28;20184;-69
2024/01/10 05:28:27;;;;;;;11.33;3.70;;;0.50;99.90;;;;;;5051509;28;20165;-69
2024/01/10 05:30:53;;;;;;;10.80;3.90;;;0.50;99.90;;;;;;5051552;28;20686;-68
2024/01/10 05:33:19;;;;;;;7.13;4.30;;;0.50;99.90;;;;;;5050091;28;20662;-68
2024/01/10 05:35:45;;;;;;;11.90;4.03;;;0.50;99.90;;;;;;5051392;28;20176;-68
2024/01/10 05:38:11;;;;;;;9.47;3.53;;;0.50;99.90;;;;;;5051227;28;20213;-68
2024/01/10 05:40:37;;;;;;;9.87;3.90;;;0.50;99.90;;;;;;5051351;28;20177;-68
2024/01/10 05:43:02;;;;;;;13.70;4.40;;;0.50;99.90;;;;;;5037171;28;20178;-68
2024/01/10 05:45:28;;;;;;;7.23;3.77;;;0.40;99.90;;;;;;5051108;28;20179;-68
2024/01/10 05:47:54;;;;;;;9.37;4.20;;;0.50;99.90;;;;;;5050753;28;20181;-68
2024/01/10 05:50:20;;;;;;;8.40;3.97;;;0.40;99.90;;;;;;5051125;28;20235;-68
2024/01/10 05:52:47;;;;;;;8.53;3.83;;;0.50;99.90;;;;;;5051092;28;20176;-68
2024/01/10 05:55:13;;;;;;;9.57;4.00;;;0.40;99.90;;;;;;5050757;28;20169;-68
2024/01/10 05:57:39;;;;;;;8.63;3.93;;;0.40;99.90;;;;;;5050813;28;20346;-68
2024/01/10 06:00:09;;;;;;;10.07;4.17;;;0.40;99.90;;;;;;5042809;28;20636;-68
2024/01/10 06:02:41;;;;;;;10.80;4.23;;;0.30;99.90;;;;;;5032042;28;20188;-68
2024/01/10 06:05:11;;;;;;;12.90;4.40;;;0.30;99.90;;;;;;5040062;28;20180;-68
2024/01/10 06:07:38;;;;;;;9.97;4.00;;;0.30;99.90;;;;;;5050843;28;20649;-68
2024/01/10 06:10:04;;;;;;;5.93;3.57;;;0.30;99.90;;;;;;5050767;28;20205;-68
2024/01/10 06:12:30;;;;;;;7.93;3.67;;;0.30;99.90;;;;;;5050762;28;20176;-68
2024/01/10 06:14:57;;;;;;;5.47;4.00;;;0.30;99.90;;;;;;5050772;28;20203;-68
2024/01/10 06:17:22;;;;;;;7.93;4.00;;;0.30;99.90;;;;;;5050660;28;20215;-68
2024/01/10 06:19:49;;;;;;;5.73;3.40;;;0.20;99.90;;;;;;5050749;28;20181;-68
2024/01/10 06:22:14;;;;;;;12.60;3.93;;;0.20;99.90;;;;;;5050734;28;20231;-68
2024/01/10 06:24:43;;;;;;;8.83;3.63;;;0.20;99.90;;;;;;5050739;28;20169;-68
2024/01/10 06:27:09;;;;;;;11.20;4.00;;;0.10;99.90;;;;;;5050450;28;20287;-68
2024/01/10 06:29:35;;;;;;;10.70;3.87;;;0.10;99.90;;;;;;5050608;28;20166;-68
2024/01/10 06:32:01;;;;;;;13.60;4.20;;;0.10;99.90;;;;;;5050896;28;20185;-68
2024/01/10 06:34:27;;;;;;;5.33;3.83;;;0.10;99.90;;;;;;5050645;28;20177;-68
2024/01/10 06:36:53;;;;;;;8.10;4.20;;;0.00;99.90;;;;;;5040166;28;20205;-68
2024/01/10 06:39:19;;;;;;;9.70;4.37;;;0.00;99.90;;;;;;5030647;28;20659;-68
2024/01/10 06:41:47;;;;;;;9.03;3.97;;;0.00;99.90;;;;;;5030557;28;20628;-68
2024/01/10 06:44:13;;;;;;;7.97;3.90;;;0.00;99.90;;;;;;5030749;28;20253;-68
2024/01/10 06:46:39;;;;;;;7.37;3.30;;;0.00;99.90;;;;;;5030693;28;20256;-68
2024/01/10 06:49:04;;;;;;;11.47;4.50;;;0.00;99.90;;;;;;5030817;28;20184;-68
2024/01/10 06:51:31;;;;;;;8.73;3.93;;;-0.10;99.90;;;;;;5030404;28;20584;-68
2024/01/10 06:54:03;;;;;;;12.07;4.43;;;-0.10;99.90;;;;;;5030584;28;20177;-68
2024/01/10 06:56:32;;;;;;;8.17;4.00;;;0.00;99.90;;;;;;5030474;28;20198;-68
2024/01/10 06:58:59;;;;;;;8.57;4.20;;;-0.10;99.90;;;;;;5048550;28;20181;-68
2024/01/10 07:01:26;;;;;;;8.40;4.30;;;0.00;99.90;;;;;;5050525;28;20196;-68
2024/01/10 07:03:55;;;;;;;6.27;4.10;;;-0.10;99.90;;;;;;5050543;28;20186;-68
2024/01/10 07:06:21;;;;;;;10.47;4.20;;;-0.10;99.90;;;;;;5051548;28;20267;-68
2024/01/10 07:08:49;;;;;;;7.67;4.47;;;-0.10;99.90;;;;;;5054127;28;20238;-68
2024/01/10 07:11:15;;;;;;;10.17;3.97;;;-0.10;99.90;;;;;;5053126;28;20264;-69
2024/01/10 07:13:41;;;;;;;7.83;3.83;;;-0.10;99.90;;;;;;5046787;28;20174;-68
2024/01/10 07:16:07;;;;;;;7.87;4.10;;;-0.20;99.90;;;;;;5039949;28;20184;-68
2024/01/10 07:18:33;;;;;;;6.87;4.37;;;-0.10;99.90;;;;;;5051175;28;20181;-67
2024/01/10 07:20:59;;;;;;;6.17;3.70;;;-0.20;99.90;;;;;;5034164;28;20538;-67
2024/01/10 07:23:25;;;;;;;10.70;4.47;;;-0.10;99.90;;;;;;5033885;28;20174;-68
2024/01/10 07:25:50;;;;;;;9.87;4.07;;;-0.10;99.90;;;;;;5037803;28;20178;-68
2024/01/10 07:28:17;;;;;;;10.27;4.33;;;0.00;99.90;;;;;;5034259;28;20529;-67
2024/01/10 07:30:44;;;;;;;14.97;4.60;;;-0.10;99.90;;;;;;5049207;28;20264;-68
2024/01/10 07:33:10;;;;;;;12.17;4.50;;;-0.10;99.90;;;;;;5042055;28;20198;-68
2024/01/10 07:35:37;;;;;;;9.07;4.30;;;0.00;99.90;;;;;;5053384;28;20172;-68
2024/01/10 07:38:04;;;;;;;10.47;4.10;;;0.00;99.90;;;;;;5051312;28;20204;-68
2024/01/10 07:40:29;;;;;;;5.70;3.80;;;-0.10;99.90;;;;;;5042307;28;20200;-67
2024/01/10 07:42:56;;;;;;;8.00;4.33;;;-0.10;99.90;;;;;;5053552;28;20632;-67
2024/01/10 07:45:22;;;;;;;11.93;4.70;;;-0.10;99.90;;;;;;5053242;28;20205;-67
2024/01/10 07:47:48;;;;;;;11.17;4.27;;;-0.10;99.90;;;;;;5053454;28;20181;-67
2024/01/10 07:50:14;;;;;;;12.30;4.30;;;-0.10;99.90;;;;;;5041322;28;20174;-67
2024/01/10 07:52:40;;;;;;;10.57;4.00;;;-0.20;99.90;;;;;;5053083;28;20200;-67
2024/01/10 07:55:06;;;;;;;7.43;4.17;;;-0.10;99.90;;;;;;5053178;28;20227;-67
2024/01/10 07:57:33;;;;;;;6.63;4.20;;;-0.10;99.90;;;;;;5051607;28;20248;-68
2024/01/10 07:59:59;;;;;;;7.90;3.93;;;-0.10;99.90;;;;;;5052990;28;20650;-68
2024/01/10 08:02:25;;;;;;;11.77;4.60;;;-0.10;99.90;;;;;;5052816;28;20177;-67
2024/01/10 08:04:52;;;;;;;10.67;4.50;;;0.00;99.90;;;;;;5049072;28;20265;-68
2024/01/10 08:07:17;;;;;;;10.73;4.97;;;-0.10;99.90;;;;;;5032918;28;20173;-67
2024/01/10 08:09:43;;;;;;;8.27;4.23;;;-0.10;99.90;;;;;;5046192;28;20636;-67
2024/01/10 08:12:09;;;;;;;8.80;4.53;;;0.00;99.90;;;;;;5052756;28;20238;-68
2024/01/10 08:14:34;;;;;;;6.43;3.97;;;0.00;99.90;;;;;;5052639;28;20196;-67
2024/01/10 08:17:00;;;;;;;6.83;3.87;;;-0.10;99.90;;;;;;5050915;28;20801;-67
2024/01/10 08:19:27;;;;;;;6.77;3.90;;;0.00;99.90;;;;;;5051367;28;20242;-68
2024/01/10 08:21:56;;;;;;;7.90;4.10;;;0.10;99.90;;;;;;5052544;28;20177;-68
2024/01/10 08:24:22;;;;;;;8.73;3.87;;;0.10;99.90;;;;;;5051164;28;20752;-68
2024/01/10 08:26:51;;;;;;;10.77;4.37;;;0.10;99.90;;;;;;5043179;28;20388;-68
2024/01/10 08:29:20;;;;;;;11.03;4.73;;;0.20;99.90;;;;;;5050298;28;20256;-68
2024/01/10 08:31:47;;;;;;;8.23;3.83;;;0.20;99.90;;;;;;5052149;28;20177;-69
2024/01/10 08:34:13;;;;;;;6.97;4.03;;;0.20;99.90;;;;;;5052248;28;20674;-68
2024/01/10 08:36:39;;;;;;;6.13;3.77;;;0.30;99.90;;;;;;5052240;28;20205;-68
2024/01/10 08:39:04;;;;;;;5.80;3.73;;;0.30;99.90;;;;;;5049803;28;20192;-69
2024/01/10 08:41:30;;;;;;;8.23;4.10;;;0.30;99.90;;;;;;5043599;28;20189;-68
2024/01/10 08:43:56;;;;;;;12.90;4.20;;;0.30;99.90;;;;;;5034360;28;20181;-68
2024/01/10 08:46:24;;;;;;;5.33;4.00;;;0.30;99.90;;;;;;5049180;28;20216;-69
2024/01/10 08:48:50;;;;;;;8.10;4.07;;;0.40;99.90;;;;;;5052018;28;20621;-69
2024/01/10 08:51:16;;;;;;;7.60;4.00;;;0.50;99.90;;;;;;5051507;28;20235;-69
2024/01/10 08:53:45;;;;;;;6.73;4.53;;;0.60;99.90;;;;;;5051876;28;20266;-69
2024/01/10 08:56:11;;;;;;;9.47;4.07;;;0.60;99.90;;;;;;5049548;28;20230;-68
2024/01/10 08:58:37;;;;;;;9.20;4.60;;;0.70;99.90;;;;;;5042575;28;20186;-67
2024/01/10 09:01:06;;;;;;;8.80;4.13;;;0.80;99.90;;;;;;5030504;28;20517;-68
2024/01/10 09:03:31;;;;;;;8.23;4.27;;;0.90;99.90;;;;;;5039260;28;20207;-69
2024/01/10 09:05:57;;;;;;;6.90;4.00;;;0.90;99.90;;;;;;5051582;28;20177;-69
2024/01/10 09:08:22;;;;;;;10.30;4.40;;;1.00;99.90;;;;;;5051615;28;20536;-69
2024/01/10 09:10:51;;;;;;;7.23;4.00;;;1.10;99.90;;;;;;5051690;28;20170;-70
2024/01/10 09:13:17;;;;;;;11.47;4.50;;;1.20;99.90;;;;;;5050090;28;20656;-70
2024/01/10 09:15:43;;;;;;;9.37;4.63;;;1.30;99.90;;;;;;5049820;28;20177;-70
2024/01/10 09:18:08;;;;;;;7.67;4.13;;;1.40;99.90;;;;;;5050615;28;20687;-69
2024/01/10 09:20:35;;;;;;;8.33;4.77;;;1.50;99.90;;;;;;5034234;28;20178;-69
2024/01/10 09:23:02;;;;;;;8.53;4.10;;;1.60;99.90;;;;;;5047899;28;20181;-69
2024/01/10 09:25:28;;;;;;;11.33;4.47;;;1.60;99.90;;;;;;5043611;28;20216;-69
2024/01/10 09:27:54;;;;;;;7.30;4.57;;;1.70;99.90;;;;;;5046712;28;20181;-69
2024/01/10 09:30:20;;;;;;;6.63;4.40;;;1.80;99.90;;;;;;5050958;28;20161;-70
2024/01/10 09:32:46;;;;;;;13.73;4.67;;;1.90;99.90;;;;;;5039698;28;20188;-69
2024/01/10 09:35:12;;;;;;;8.33;4.40;;;2.00;99.90;;;;;;5041026;28;20185;-70
2024/01/10 09:37:38;;;;;;;6.53;4.50;;;2.10;99.90;;;;;;5034379;28;20202;-69
2024/01/10 09:40:07;;;;;;;6.80;4.47;;;2.20;99.90;;;;;;5035004;28;20182;-69
2024/01/10 09:42:35;;;;;;;7.00;4.47;;;2.30;99.90;;;;;;5051048;28;20342;-70
2024/01/10 09:45:03;;;;;;;6.17;4.03;;;2.30;99.90;;;;;;5051302;28;20647;-70
2024/01/10 09:47:31;;;;;;;5.90;4.13;;;2.30;99.90;;;;;;5051136;28;20157;-70
2024/01/10 09:49:57;;;;;;;8.80;4.13;;;2.30;99.90;;;;;;5051330;28;20633;-70
2024/01/10 09:52:25;;;;;;;14.30;3.97;;;2.40;99.90;;;;;;5046092;28;20253;-70
2024/01/10 09:54:56;;;;;;;8.50;3.70;;;2.40;99.90;;;;;;5046692;28;20242;-68
2024/01/10 09:57:25;;;;;;;10.77;4.27;;;2.60;99.90;;;;;;5035244;28;20217;-70
2024/01/10 09:59:51;;;;;;;6.63;3.90;;;2.60;99.90;;;;;;5044418;28;20178;-69
2024/01/10 10:02:18;;;;;;;10.13;3.83;;;2.70;99.90;;;;;;5036394;28;20182;-70
2024/01/10 10:05:08;;;;;;;7.07;4.10;;;2.80;99.90;;;;;;5033192;28;20176;-70
2024/01/10 10:08:06;;;;;;;10.20;3.43;;;2.80;99.90;;;;;;5039880;28;20661;-69
2024/01/10 10:10:32;;;;;;;7.83;3.90;;;2.90;99.90;;;;;;5046590;28;20181;-69
2024/01/10 10:12:57;;;;;;;7.03;4.27;;;3.00;99.90;;;;;;5050771;28;20651;-69
2024/01/10 10:15:28;;;;;;;7.03;3.53;;;3.10;99.90;;;;;;5050814;28;20240;-69
2024/01/10 10:17:54;;;;;;;7.40;3.80;;;3.30;99.90;;;;;;5050585;28;20746;-69
2024/01/10 10:20:23;;;;;;;5.20;3.40;;;3.30;99.90;;;;;;5048619;28;20177;-69
2024/01/10 10:23:06;;;;;;;7.70;3.73;;;3.20;99.90;;;;;;5041228;28;20205;-69
2024/01/10 10:25:37;;;;;;;12.97;3.83;;;3.40;99.90;;;;;;5049733;28;20173;-70
2024/01/10 10:28:04;;;;;;;8.57;3.77;;;3.50;99.90;;;;;;5037745;28;20176;-70
2024/01/10 10:30:33;;;;;;;5.33;2.90;;;3.60;99.90;;;;;;5041346;28;20690;-69
2024/01/10 10:32:59;;;;;;;5.73;2.90;;;3.90;99.90;;;;;;5034311;28;20189;-70
2024/01/10 10:35:25;;;;;;;15.00;3.67;;;4.10;99.90;;;;;;5038258;28;20196;-69
2024/01/10 10:37:52;;;;;;;6.03;3.30;;;4.10;99.90;;;;;;5050872;28;20225;-68
2024/01/10 10:40:19;;;;;;;8.20;3.27;;;4.00;99.90;;;;;;5050754;28;20193;-68
2024/01/10 10:42:52;;;;;;;7.83;2.87;;;4.00;99.90;;;;;;5054243;28;20181;-68
2024/01/10 10:45:19;;;;;;;11.10;3.53;;;4.00;99.90;;;;;;5054431;28;20177;-69
2024/01/10 10:47:49;;;;;;;7.47;2.80;;;4.10;99.90;;;;;;5054272;28;20181;-68
2024/01/10 10:50:22;;;;;;;5.57;2.80;;;4.10;99.90;;;;;;5051783;28;20169;-68
2024/01/10 10:52:49;;;;;;;5.27;3.00;;;4.10;99.90;;;;;;5034398;28;20637;-69
2024/01/10 10:55:18;;;;;;;10.47;2.80;;;4.20;99.90;;;;;;5051212;28;20173;-68
2024/01/10 10:57:46;;;;;;;5.10;2.77;;;4.20;99.90;;;;;;5054143;28;20213;-68
2024/01/10 11:00:20;;;;;;;8.97;2.80;;;4.20;99.90;;;;;;5052840;28;20278;-68
2024/01/10 11:02:46;;;;;;;7.40;2.37;;;4.10;99.90;;;;;;5054099;28;20631;-69
2024/01/10 11:05:12;;;;;;;4.53;2.43;;;4.20;99.90;;;;;;5054009;28;20169;-70
2024/01/10 11:07:46;;;;;;;10.27;2.40;;;4.60;99.90;;;;;;5053930;28;20211;-70
2024/01/10 11:10:33;;;;;;;6.67;2.60;;;5.00;99.90;;;;;;5052563;28;20191;-71
2024/01/10 11:13:14;;;;;;;9.67;2.90;;;5.50;99.90;;;;;;5053928;28;20177;-71
2024/01/10 11:15:54;;;;;;;7.93;2.87;;;5.70;99.90;;;;;;5052240;28;20165;-69
2024/01/10 11:18:38;;;;;;;10.80;2.67;;;5.80;99.90;;;;;;5053704;28;20239;-68
2024/01/10 11:21:36;;;;;;;12.07;2.70;;;6.90;99.90;;;;;;5053667;28;20194;-69
2024/01/10 11:24:03;;;;;;;12.23;2.60;;;6.90;99.90;;;;;;5046900;28;20190;-68
2024/01/10 11:26:29;;;;;;;6.70;2.53;;;7.00;99.90;;;;;;5053728;28;20246;-69
2024/01/10 11:28:57;;;;;;;9.37;2.80;;;7.10;99.90;;;;;;5053456;28;20632;-68
2024/01/10 11:31:31;;;;;;;8.60;2.43;;;8.60;99.90;;;;;;5053600;28;20652;-68
2024/01/10 11:33:59;;;;;;;5.17;2.23;;;8.80;99.90;;;;;;5050368;28;20177;-68
2024/01/10 11:36:26;;;;;;;7.60;2.37;;;9.30;99.90;;;;;;5041368;28;20659;-68
2024/01/10 11:38:53;;;;;;;10.03;2.30;;;9.00;99.90;;;;;;5053323;28;20605;-69
2024/01/10 11:41:35;;;;;;;7.17;2.03;;;9.00;99.90;;;;;;5051677;28;20629;-69
2024/01/10 11:46:58;;;;;;;6.80;2.00;;;10.10;99.90;;;;;;5042145;28;20551;-68
2024/01/10 11:49:25;;;;;;;10.83;2.23;;;10.60;99.90;;;;;;5053162;28;20250;-69
2024/01/10 11:51:54;;;;;;;5.77;2.03;;;11.00;99.90;;;;;;5035112;28;20226;-69
2024/01/10 11:54:45;;;;;;;12.53;2.10;;;12.00;99.90;;;;;;5037424;28;20272;-68
2024/01/10 11:57:11;;;;;;;9.18;1.83;;;11.40;99.90;;;;;;5048213;28;20687;-69
2024/01/10 11:59:38;;;;;;;9.32;2.00;;;11.40;99.90;;;;;;5036197;28;20174;-69
2024/01/10 12:02:04;;;;;;;9.88;1.70;;;11.60;99.90;;;;;;5046229;28;20213;-68
2024/01/10 12:04:32;;;;;;;4.70;1.63;;;11.00;99.90;;;;;;5051498;28;20599;-69
2024/01/10 12:06:58;;;;;;;11.85;3.97;;;12.90;99.90;;;;;;5052878;28;20169;-69
2024/01/10 12:09:24;;;;;;;7.50;2.47;;;13.70;99.90;;;;;;5052538;28;20189;-68
2024/01/10 12:11:50;;;;;;;13.15;2.28;;;16.00;99.90;;;;;;5053013;28;20200;-69
2024/01/10 12:14:17;;;;;;;8.07;2.88;;;17.30;99.90;;;;;;5052768;28;20628;-67
2024/01/10 12:16:43;;;;;;;8.00;2.42;;;17.30;99.90;;;;;;5052417;28;20671;-68
2024/01/10 12:19:08;;;;;;;4.90;1.98;;;18.20;99.90;;;;;;5051358;28;20169;-69
2024/01/10 12:21:34;;;;;;;7.97;2.05;;;19.00;99.90;;;;;;5052667;28;20166;-69
2024/01/10 12:23:59;;;;;;;5.55;1.90;;;19.10;1.00;;;;;;5052658;28;20559;-68
2024/01/10 12:26:25;;;;;;;9.90;2.35;;;18.70;99.90;;;;;;5052563;28;20173;-68
2024/01/10 12:28:54;;;;;;;10.88;2.10;;;17.60;99.90;;;;;;5052560;28;20174;-68
2024/01/10 12:31:22;;;;;;;7.63;2.13;;;18.70;1.00;;;;;;5052323;28;20172;-68
2024/01/10 12:33:49;;;;;;;5.10;1.88;;;19.10;99.90;;;;;;5052398;28;20184;-68
2024/01/10 12:36:17;;;;;;;10.98;2.38;;;19.20;1.00;;;;;;5052247;28;20215;-68
2024/01/10 12:38:47;;;;;;;7.43;2.10;;;19.10;1.00;;;;;;5052392;28;20190;-68
2024/01/10 12:41:15;;;;;;;5.43;2.15;;;19.40;95.60;;;;;;5052385;28;20216;-68
2024/01/10 12:43:41;;;;;;;5.50;2.08;;;19.70;1.00;;;;;;5052303;28;20174;-68
2024/01/10 12:46:13;;;;;;;5.30;1.77;;;19.50;99.90;;;;;;5052235;28;20716;-68
2024/01/10 12:48:43;;;;;;;10.98;2.05;;;19.80;99.90;;;;;;5052002;28;20204;-68
2024/01/10 12:51:10;;;;;;;7.03;2.17;;;19.50;1.00;;;;;;5051850;28;20233;-68
2024/01/10 12:53:38;;;;;;;11.00;2.30;;;18.30;1.00;;;;;;5052027;28;20570;-70